Time;durP1;ratioP1;P1;durP2;ratioP2;P2;SDS_P1;SDS_P2;PMS_P1;PMS_P2;Temp;Humidity;BMP_temperature;BMP_pressure;BME280_temperature;BME280_humidity;BME280_pressure;Samples;Min_cycle;Max_cycle;Signal;HPM_P1;HPM_P2
2022/09/15 00:01:00;;;;;;;4.80;2.10;;;;;;;-145.69;100.00;70505.06;5075661;28;20666;-76
2022/09/15 00:03:28;;;;;;;3.13;1.77;;;;;;;-145.69;100.00;70524.97;5075593;28;20252;-76
2022/09/15 00:05:54;;;;;;;4.68;1.65;;;;;;;-145.69;100.00;70542.88;5075676;28;20199;-76
2022/09/15 00:08:21;;;;;;;2.85;1.88;;;;;;;-145.69;100.00;70542.88;5087261;28;20656;-76
2022/09/15 00:10:49;;;;;;;3.38;1.90;;;;;;;-145.69;100.00;70546.84;5095544;28;20711;-75
2022/09/15 00:13:16;;;;;;;7.15;2.03;;;;;;;-145.69;100.00;70538.88;5095576;28;20202;-75
2022/09/15 00:15:43;;;;;;;3.40;2.33;;;;;;;-145.69;100.00;70548.84;5095659;28;20201;-75
2022/09/15 00:18:11;;;;;;;10.98;2.10;;;;;;;-145.69;100.00;70560.78;5085388;28;20198;-76
2022/09/15 00:20:40;;;;;;;5.07;1.92;;;;;;;-145.69;100.00;70556.78;5075461;28;20206;-75
2022/09/15 00:23:06;;;;;;;6.13;2.30;;;;;;;-145.69;100.00;70548.84;5075425;28;20205;-76
2022/09/15 00:25:33;;;;;;;3.88;2.40;;;;;;;-145.69;100.00;70562.75;5075184;28;20199;-76
2022/09/15 00:27:59;;;;;;;6.65;2.28;;;;;;;-145.69;100.00;70570.72;5083836;28;20209;-76
2022/09/15 00:30:26;;;;;;;8.40;2.50;;;;;;;-145.69;100.00;70574.69;5095149;28;20661;-76
2022/09/15 00:32:53;;;;;;;3.42;2.13;;;;;;;-145.69;100.00;70584.66;5095503;28;20252;-76
2022/09/15 00:35:20;;;;;;;6.05;2.00;;;;;;;-145.69;100.00;70586.63;5092622;28;20198;-76
2022/09/15 00:37:47;;;;;;;7.80;2.72;;;;;;;-145.69;100.00;70576.69;5074711;28;20195;-76
2022/09/15 00:40:13;;;;;;;5.82;2.42;;;;;;;-145.69;100.00;70582.66;5074855;28;20207;-76
2022/09/15 00:42:40;;;;;;;9.35;2.95;;;;;;;-145.69;100.00;70570.72;5075107;28;20200;-76
2022/09/15 00:45:13;;;;;;;6.53;2.85;;;;;;;-145.69;100.00;70558.78;5075155;28;20198;-76
2022/09/15 00:47:40;;;;;;;6.40;2.63;;;;;;;-145.69;100.00;70560.78;5095066;28;20198;-75
2022/09/15 00:50:13;;;;;;;4.75;2.15;;;;;;;-145.69;100.00;70560.78;5094968;28;20229;-76
2022/09/15 00:52:44;;;;;;;3.58;2.08;;;;;;;-145.69;100.00;70566.75;5094896;28;20212;-75
2022/09/15 00:55:15;;;;;;;5.68;2.33;;;;;;;-145.69;100.00;70546.84;5094211;28;20243;-75
2022/09/15 00:57:46;;;;;;;7.38;2.80;;;;;;;-145.69;100.00;70554.81;5074857;28;20209;-75
2022/09/15 01:00:15;;;;;;;4.60;1.98;;;;;;;-145.69;100.00;70542.88;5073966;28;20445;-77
2022/09/15 01:02:44;;;;;;;4.93;1.63;;;;;;;-145.69;100.00;70522.97;5074618;28;20214;-77
2022/09/15 01:05:13;;;;;;;5.13;1.40;;;;;;;-145.69;100.00;70481.19;5074491;28;20213;-76
2022/09/15 01:07:45;;;;;;;3.63;1.40;;;;;;;-145.69;100.00;70489.16;5094901;28;20209;-75
2022/09/15 01:10:17;;;;;;;2.45;1.40;;;;;;;-145.69;100.00;70487.16;5077784;28;20218;-75
2022/09/15 01:12:44;;;;;;;1.80;1.15;;;;;;;-145.69;100.00;70487.16;5074449;28;20230;-76
2022/09/15 01:15:11;;;;;;;4.68;1.33;;;;;;;-145.69;100.00;70453.34;5074263;28;20203;-75
2022/09/15 01:17:48;;;;;;;2.30;1.25;;;;;;;-145.69;100.00;70465.28;5054199;28;20210;-75
2022/09/15 01:20:42;;;;;;;3.28;1.10;;;;;;;-145.69;100.00;70471.25;5053281;28;20286;-75
2022/09/15 01:23:34;;;;;;;1.55;1.13;;;;;;;-145.69;100.00;70469.25;5054292;28;20203;-76
2022/09/15 01:26:24;;;;;;;2.65;1.25;;;;;;;-145.69;100.00;70467.28;5067448;28;20205;-77
2022/09/15 01:29:11;;;;;;;3.17;1.10;;;;;;;-145.69;100.00;70463.28;5094272;28;20665;-76
2022/09/15 01:34:29;;;;;;;2.58;1.10;;;;;;;-145.69;100.00;70455.34;5093955;28;20194;-76
2022/09/15 01:37:02;;;;;;;3.17;1.00;;;;;;;-145.69;100.00;70467.28;5093743;28;20194;-75
2022/09/15 01:39:36;;;;;;;2.80;1.23;;;;;;;-145.69;100.00;70423.50;5094210;28;20202;-75
2022/09/15 01:42:06;;;;;;;4.63;1.02;;;;;;;-145.69;100.00;70419.53;5094013;28;20202;-77
2022/09/15 01:44:37;;;;;;;3.30;1.33;;;;;;;-145.69;100.00;70435.44;5093942;28;20565;-75
2022/09/15 01:47:07;;;;;;;3.75;1.00;;;;;;;-145.69;100.00;70437.44;5078600;28;20194;-77
2022/09/15 01:49:38;;;;;;;2.35;1.05;;;;;;;-145.69;100.00;70407.59;5073253;28;20574;-76
2022/09/15 01:52:05;;;;;;;2.35;0.88;;;;;;;-145.69;100.00;70395.66;5073649;28;20593;-75
2022/09/15 01:54:38;;;;;;;5.75;1.08;;;;;;;-145.69;100.00;70399.63;5073392;28;20203;-76
2022/09/15 01:57:05;;;;;;;5.50;0.85;;;;;;;-145.69;100.00;70411.56;5088200;28;20195;-76
2022/09/15 01:59:32;;;;;;;3.50;1.05;;;;;;;-145.69;100.00;70411.56;5093113;28;20211;-76
2022/09/15 02:02:03;;;;;;;2.17;0.98;;;;;;;-145.69;100.00;70393.66;5093763;28;20194;-76
2022/09/15 02:04:37;;;;;;;0.95;0.80;;;;;;;-145.69;100.00;70407.59;5093689;28;20202;-75
2022/09/15 02:07:11;;;;;;;8.23;1.42;;;;;;;-145.69;100.00;70427.47;5078656;28;20671;-75
2022/09/15 02:09:42;;;;;;;3.28;1.35;;;;;;;-145.69;100.00;70441.41;5073253;28;20719;-77
2022/09/15 02:12:18;;;;;;;2.22;0.88;;;;;;;-145.69;100.00;70455.34;5075899;28;20236;-76
2022/09/15 02:14:52;;;;;;;1.67;1.10;;;;;;;-145.69;100.00;70439.41;5093457;28;20529;-75
2022/09/15 02:17:20;;;;;;;5.63;1.00;;;;;;;-145.69;100.00;70433.44;5093350;28;20683;-75
2022/09/15 02:19:51;;;;;;;1.83;0.90;;;;;;;-145.69;100.00;70427.47;5093451;28;20202;-75
2022/09/15 02:22:23;;;;;;;1.60;1.10;;;;;;;-145.69;100.00;70421.50;5089845;28;20210;-76
2022/09/15 02:24:55;;;;;;;1.73;1.08;;;;;;;-145.69;100.00;70435.44;5073314;28;20217;-75
2022/09/15 02:27:27;;;;;;;2.70;0.98;;;;;;;-145.69;100.00;70439.41;5073231;28;20230;-75
2022/09/15 02:29:58;;;;;;;1.50;0.70;;;;;;;-145.69;100.00;70447.38;5073076;28;20653;-75
2022/09/15 02:32:27;;;;;;;2.03;1.27;;;;;;;-145.69;100.00;70429.47;5076489;28;20221;-76
2022/09/15 02:34:57;;;;;;;4.22;1.15;;;;;;;-145.69;100.00;70417.53;5093146;28;20202;-75
2022/09/15 02:37:25;;;;;;;3.08;0.80;;;;;;;-145.69;100.00;70387.69;5093258;28;20208;-75
2022/09/15 02:39:56;;;;;;;1.73;1.10;;;;;;;-145.69;100.00;70387.69;5093282;28;20205;-76
2022/09/15 02:42:24;;;;;;;4.45;0.88;;;;;;;-145.69;100.00;70407.59;5089430;28;20645;-75
2022/09/15 02:44:51;;;;;;;1.33;0.88;;;;;;;-145.69;100.00;70387.69;5072923;28;20226;-75
2022/09/15 02:47:17;;;;;;;2.00;0.90;;;;;;;-145.69;100.00;70383.72;5072617;28;20191;-76
2022/09/15 02:49:44;;;;;;;3.53;0.90;;;;;;;-145.69;100.00;70369.78;5072603;28;20697;-76
2022/09/15 02:52:12;;;;;;;1.60;0.93;;;;;;;-145.69;100.00;70375.75;5073230;28;20277;-75
2022/09/15 02:54:38;;;;;;;2.65;0.93;;;;;;;-145.69;100.00;70383.72;5093100;28;20202;-76
2022/09/15 02:57:05;;;;;;;1.60;0.80;;;;;;;-145.69;100.00;70391.66;5092921;28;20198;-75
2022/09/15 03:00:11;;;;;;;1.45;0.80;;;;;;;-145.69;100.00;70399.63;5074762;28;20298;-75
2022/09/15 03:02:25;;;;;;;1.00;0.90;;;;;;;-145.69;100.00;70407.59;5075529;28;20761;-76
2022/09/15 03:04:52;;;;;;;1.52;0.90;;;;;;;-145.69;100.00;70401.63;5093006;28;20209;-75
2022/09/15 03:07:20;;;;;;;3.10;0.80;;;;;;;-145.69;100.00;70409.56;5081144;28;21951;-75
2022/09/15 03:09:46;;;;;;;4.70;0.90;;;;;;;-145.69;100.00;70399.63;5052716;28;20341;-76
2022/09/15 03:12:13;;;;;;;8.70;0.80;;;;;;;-145.69;100.00;70381.72;5058488;28;20227;-77
2022/09/15 03:14:39;;;;;;;5.03;0.90;;;;;;;-145.69;100.00;70379.72;5096927;28;20241;-75
2022/09/15 03:17:06;;;;;;;3.50;1.00;;;;;;;-145.69;100.00;70369.78;5096919;28;20193;-76
2022/09/15 03:19:32;;;;;;;1.65;0.70;;;;;;;-145.69;100.00;70363.81;5096864;28;20198;-75
2022/09/15 03:21:59;;;;;;;4.10;0.95;;;;;;;-145.69;100.00;70357.84;5096949;28;20198;-77
2022/09/15 03:24:27;;;;;;;1.92;0.80;;;;;;;-145.69;100.00;70359.84;5076838;28;20199;-76
2022/09/15 03:26:53;;;;;;;2.30;0.90;;;;;;;-145.69;100.00;70351.88;5076318;28;20198;-76
2022/09/15 03:29:20;;;;;;;5.20;1.30;;;;;;;-145.69;100.00;70351.88;5076582;28;20199;-76
2022/09/15 03:31:46;;;;;;;1.83;0.90;;;;;;;-145.69;100.00;70365.81;5076396;28;20230;-76
2022/09/15 03:34:13;;;;;;;0.60;0.60;;;;;;;-145.69;100.00;70339.94;5093609;28;20198;-76
2022/09/15 03:36:40;;;;;;;2.80;0.70;;;;;;;-145.69;100.00;70339.94;5096565;28;20206;-76
2022/09/15 03:39:06;;;;;;;3.58;0.80;;;;;;;-145.69;100.00;70337.97;5078356;28;20199;-77
2022/09/15 03:41:34;;;;;;;2.60;0.85;;;;;;;-145.69;100.00;70330.00;5075904;28;20209;-76
2022/09/15 03:44:01;;;;;;;1.13;0.85;;;;;;;-145.69;100.00;70343.94;5076202;28;20214;-75
2022/09/15 03:46:27;;;;;;;0.90;0.80;;;;;;;-145.69;100.00;70337.97;5076111;28;20199;-75
2022/09/15 03:48:54;;;;;;;0.85;0.70;;;;;;;-145.69;100.00;70355.88;5076940;28;20226;-75
2022/09/15 03:51:20;;;;;;;5.68;0.80;;;;;;;-145.69;100.00;70349.91;5075805;28;20756;-76
2022/09/15 03:53:47;;;;;;;3.95;0.90;;;;;;;-145.69;100.00;70347.91;5075961;28;20248;-76
2022/09/15 03:56:21;;;;;;;1.48;0.85;;;;;;;-145.69;100.00;70347.91;5075704;28;20203;-76
2022/09/15 03:58:50;;;;;;;2.03;0.77;;;;;;;-145.69;100.00;70351.88;5084420;28;20601;-76
2022/09/15 04:01:17;;;;;;;4.05;1.10;;;;;;;-145.69;100.00;70357.84;5095991;28;20201;-76
2022/09/15 04:03:44;;;;;;;1.65;0.77;;;;;;;-145.69;100.00;70363.81;5096256;28;20239;-76
2022/09/15 04:06:11;;;;;;;2.20;0.70;;;;;;;-145.69;100.00;70353.88;5095900;28;20675;-76
2022/09/15 04:08:37;;;;;;;2.58;1.25;;;;;;;-145.69;100.00;70349.91;5088125;28;20633;-76
2022/09/15 04:11:05;;;;;;;3.60;0.80;;;;;;;-145.69;100.00;70355.88;5075772;28;20202;-76
2022/09/15 04:13:32;;;;;;;3.85;0.80;;;;;;;-145.69;100.00;70353.88;5075470;28;20258;-76
2022/09/15 04:16:00;;;;;;;3.13;0.90;;;;;;;-145.69;100.00;70363.81;5075638;28;20206;-77
2022/09/15 04:18:28;;;;;;;5.53;0.90;;;;;;;-145.69;100.00;70363.81;5080688;28;20190;-75
2022/09/15 04:20:58;;;;;;;3.60;1.05;;;;;;;-145.69;100.00;70361.84;5095593;28;20202;-76
2022/09/15 04:23:24;;;;;;;1.48;0.80;;;;;;;-145.69;100.00;70377.75;5095096;28;20229;-76
2022/09/15 04:25:55;;;;;;;2.13;0.80;;;;;;;-145.69;100.00;70395.66;5095639;28;20202;-76
2022/09/15 04:28:22;;;;;;;2.67;0.90;;;;;;;-145.69;100.00;70369.78;5090635;28;20187;-76
2022/09/15 04:30:48;;;;;;;2.25;0.95;;;;;;;-145.69;100.00;70379.72;5075451;28;20213;-76
2022/09/15 04:33:16;;;;;;;3.55;0.98;;;;;;;-145.69;100.00;70383.72;5074929;28;20232;-75
2022/09/15 04:35:43;;;;;;;4.47;1.10;;;;;;;-145.69;100.00;70399.63;5074994;28;20203;-76
2022/09/15 04:38:10;;;;;;;1.38;0.80;;;;;;;-145.69;100.00;70381.72;5077686;28;20194;-76
2022/09/15 04:40:36;;;;;;;1.88;1.05;;;;;;;-145.69;100.00;70385.69;5095256;28;20217;-76
2022/09/15 04:43:03;;;;;;;1.73;0.77;;;;;;;-145.69;100.00;70387.69;5095280;28;20739;-76
2022/09/15 04:45:32;;;;;;;1.08;0.80;;;;;;;-145.69;100.00;70403.59;5095200;28;20199;-75
2022/09/15 04:47:59;;;;;;;4.97;0.93;;;;;;;-145.69;100.00;70407.59;5094056;28;20201;-76
2022/09/15 04:50:26;;;;;;;1.00;0.90;;;;;;;-145.69;100.00;70419.53;5094268;28;20222;-76
2022/09/15 04:52:53;;;;;;;1.52;0.93;;;;;;;-145.69;100.00;70407.59;5095071;28;20260;-76
2022/09/15 04:55:19;;;;;;;2.05;0.90;;;;;;;-145.69;100.00;70403.59;5095197;28;20284;-76
2022/09/15 04:57:46;;;;;;;3.22;0.90;;;;;;;-145.69;100.00;70419.53;5089187;28;20210;-75
2022/09/15 05:00:14;;;;;;;3.28;1.10;;;;;;;-145.69;100.00;70413.56;5093393;28;20293;-75
2022/09/15 05:02:40;;;;;;;1.77;0.90;;;;;;;-145.69;100.00;70411.56;5094703;28;20194;-76
2022/09/15 05:05:07;;;;;;;7.07;1.27;;;;;;;-145.69;100.00;70417.53;5095064;28;20220;-77
2022/09/15 05:07:35;;;;;;;1.15;0.90;;;;;;;-145.69;100.00;70441.41;5094637;28;20198;-77
2022/09/15 05:10:02;;;;;;;1.63;0.70;;;;;;;-145.69;100.00;70459.31;5076584;28;20195;-76
2022/09/15 05:12:28;;;;;;;2.63;0.90;;;;;;;-145.69;100.00;70481.19;5074390;28;20238;-75
2022/09/15 05:14:54;;;;;;;2.22;0.88;;;;;;;-145.69;100.00;70497.09;5074613;28;20199;-75
2022/09/15 05:17:21;;;;;;;2.95;1.02;;;;;;;-145.69;100.00;70509.03;5074347;28;20199;-75
2022/09/15 05:19:47;;;;;;;2.42;1.00;;;;;;;-145.69;100.00;70517.00;5089642;28;20203;-76
2022/09/15 05:22:14;;;;;;;3.90;1.35;;;;;;;-145.69;100.00;70517.00;5093230;28;20194;-75
2022/09/15 05:24:42;;;;;;;1.83;1.00;;;;;;;-145.69;100.00;70526.94;5092410;28;20194;-75
2022/09/15 05:27:08;;;;;;;2.38;1.25;;;;;;;-145.69;100.00;70515.00;5092276;28;20201;-75
2022/09/15 05:29:34;;;;;;;5.28;1.58;;;;;;;-145.69;100.00;70517.00;5078768;28;20191;-75
2022/09/15 05:32:01;;;;;;;5.43;1.40;;;;;;;-145.69;100.00;70519.00;5071787;28;20205;-75
2022/09/15 05:34:28;;;;;;;2.25;1.33;;;;;;;-145.69;100.00;70517.00;5071534;28;20198;-75
2022/09/15 05:36:54;;;;;;;1.52;1.15;;;;;;;-145.69;100.00;70505.06;5073145;28;20199;-75
2022/09/15 05:39:20;;;;;;;3.13;1.30;;;;;;;-145.69;100.00;70501.09;5084818;28;20201;-75
2022/09/15 05:41:48;;;;;;;2.90;1.20;;;;;;;-145.69;100.00;70501.09;5094162;28;20197;-76
2022/09/15 05:44:15;;;;;;;3.80;1.38;;;;;;;-145.69;100.00;70491.13;5094194;28;20202;-76
2022/09/15 05:46:41;;;;;;;2.03;1.25;;;;;;;-145.69;100.00;70497.09;5094097;28;20425;-76
2022/09/15 05:49:08;;;;;;;1.17;0.90;;;;;;;-145.69;100.00;70483.19;5084409;28;20246;-75
2022/09/15 05:51:35;;;;;;;1.98;1.20;;;;;;;-145.69;100.00;70495.13;5073557;28;20198;-76
2022/09/15 05:54:02;;;;;;;1.75;0.75;;;;;;;-145.69;100.00;70491.13;5073611;28;20230;-75
2022/09/15 05:56:30;;;;;;;1.52;1.05;;;;;;;-145.69;100.00;70491.13;5073539;28;20207;-75
2022/09/15 05:58:57;;;;;;;2.28;1.00;;;;;;;-145.69;100.00;70485.16;5080635;28;20194;-75
2022/09/15 06:01:25;;;;;;;4.10;1.30;;;;;;;-145.69;100.00;70483.19;5093801;28;20197;-74
2022/09/15 06:03:53;;;;;;;2.90;1.40;;;;;;;-145.69;100.00;70477.22;5093241;28;20201;-76
2022/09/15 06:06:21;;;;;;;1.45;1.10;;;;;;;-145.69;100.00;70483.19;5093555;28;20561;-76
2022/09/15 06:08:49;;;;;;;2.47;1.23;;;;;;;-145.69;100.00;70477.22;5087267;28;20924;-76
2022/09/15 06:11:19;;;;;;;2.88;1.40;;;;;;;-145.69;100.00;70473.22;5073263;28;20554;-75
2022/09/15 06:13:46;;;;;;;5.72;1.58;;;;;;;-145.69;100.00;70471.25;5072989;28;20705;-75
2022/09/15 06:16:17;;;;;;;2.08;1.00;;;;;;;-145.69;100.00;70467.28;5073238;28;20201;-75
2022/09/15 06:18:43;;;;;;;5.13;1.10;;;;;;;-145.69;100.00;70457.31;5078002;28;20198;-75
2022/09/15 06:21:12;;;;;;;3.55;1.20;;;;;;;-145.69;100.00;70453.34;5093588;28;20209;-74
2022/09/15 06:23:39;;;;;;;2.63;1.15;;;;;;;-145.69;100.00;70447.38;5093388;28;20198;-75
2022/09/15 06:26:10;;;;;;;2.35;1.10;;;;;;;-145.69;100.00;70439.41;5093221;28;20207;-75
2022/09/15 06:28:37;;;;;;;5.07;1.20;;;;;;;-145.69;100.00;70419.53;5089620;28;20191;-75
2022/09/15 06:31:04;;;;;;;3.72;1.08;;;;;;;-145.69;100.00;70407.59;5072995;28;20199;-75
2022/09/15 06:33:32;;;;;;;3.42;1.10;;;;;;;-145.69;100.00;70401.63;5073053;28;20226;-75
2022/09/15 06:36:01;;;;;;;4.45;1.20;;;;;;;-145.69;100.00;70379.72;5073046;28;20202;-75
2022/09/15 06:38:27;;;;;;;2.00;1.10;;;;;;;-145.69;100.00;70357.84;5075279;28;20236;-75
2022/09/15 06:40:56;;;;;;;2.97;1.00;;;;;;;-145.69;100.00;70349.91;5093236;28;20202;-75
2022/09/15 06:43:22;;;;;;;2.22;1.08;;;;;;;-145.69;100.00;70347.91;5093160;28;20676;-76
2022/09/15 06:45:49;;;;;;;2.13;0.93;;;;;;;-145.69;100.00;70347.91;5092948;28;20194;-75
2022/09/15 06:48:15;;;;;;;1.63;0.93;;;;;;;-145.69;100.00;70339.94;5092604;28;20206;-76
2022/09/15 06:50:43;;;;;;;4.00;1.05;;;;;;;-145.69;100.00;70330.00;5069031;28;20245;-75
2022/09/15 06:53:09;;;;;;;0.80;0.75;;;;;;;-145.69;100.00;70332.00;5072669;28;20230;-76
2022/09/15 06:55:36;;;;;;;9.32;1.00;;;;;;;-145.69;100.00;70345.91;5072687;28;20661;-75
2022/09/15 06:58:03;;;;;;;1.08;0.70;;;;;;;-145.69;100.00;70349.91;5072920;28;20211;-75
2022/09/15 07:00:29;;;;;;;1.58;0.80;;;;;;;-145.69;100.00;70337.97;5090673;28;20194;-75
2022/09/15 07:02:56;;;;;;;2.45;0.88;;;;;;;-145.69;100.00;70330.00;5092944;28;20205;-76
2022/09/15 07:05:24;;;;;;;1.73;0.70;;;;;;;-145.69;100.00;70328.00;5092910;28;20209;-75
2022/09/15 07:07:52;;;;;;;2.50;1.00;;;;;;;-145.69;100.00;70322.03;5092886;28;20198;-76
2022/09/15 07:10:19;;;;;;;3.15;1.13;;;;;;;-145.69;100.00;70318.06;5075815;28;20191;-76
2022/09/15 07:12:45;;;;;;;1.35;0.82;;;;;;;-145.69;100.00;70298.16;5072677;28;20713;-75
2022/09/15 07:15:12;;;;;;;2.17;1.00;;;;;;;-145.69;100.00;70290.22;5072694;28;20248;-76
2022/09/15 07:17:38;;;;;;;1.58;0.80;;;;;;;-145.69;100.00;70280.28;5072667;28;20569;-76
2022/09/15 07:20:06;;;;;;;1.33;0.77;;;;;;;-145.69;100.00;70288.22;5087121;28;20198;-77
2022/09/15 07:22:32;;;;;;;3.58;0.90;;;;;;;-145.69;100.00;70302.16;5092593;28;20236;-75
2022/09/15 07:25:00;;;;;;;1.92;0.60;;;;;;;-145.69;100.00;70320.06;5092816;28;20202;-75
2022/09/15 07:27:30;;;;;;;2.47;0.85;;;;;;;-145.69;100.00;70312.09;5092798;28;20194;-77
2022/09/15 07:29:57;;;;;;;2.88;0.80;;;;;;;-145.69;100.00;70322.03;5079135;28;20653;-76
2022/09/15 07:32:23;;;;;;;2.83;0.70;;;;;;;-145.69;100.00;70332.00;5072348;28;20199;-76
2022/09/15 07:34:50;;;;;;;0.93;0.70;;;;;;;-145.69;100.00;70332.00;5072502;28;20649;-76
2022/09/15 07:37:17;;;;;;;2.25;0.88;;;;;;;-145.69;100.00;70333.97;5072594;28;20202;-75
2022/09/15 07:39:43;;;;;;;1.48;0.70;;;;;;;-145.69;100.00;70328.00;5083703;28;20206;-77
2022/09/15 07:42:11;;;;;;;1.00;0.70;;;;;;;-145.69;100.00;70304.13;5092746;28;20213;-76
2022/09/15 07:44:37;;;;;;;1.05;0.80;;;;;;;-145.69;100.00;70288.22;5092697;28;20205;-76
2022/09/15 07:47:04;;;;;;;1.58;0.60;;;;;;;-145.69;100.00;70290.22;5093023;28;20652;-76
2022/09/15 07:49:31;;;;;;;1.50;0.80;;;;;;;-145.69;100.00;70290.22;5083234;28;20218;-76
2022/09/15 07:51:57;;;;;;;1.77;0.80;;;;;;;-145.69;100.00;70292.19;5072804;28;20298;-76
2022/09/15 07:54:24;;;;;;;0.40;0.40;;;;;;;-145.69;100.00;70284.25;5072381;28;20231;-75
2022/09/15 07:56:50;;;;;;;1.08;0.70;;;;;;;-145.69;100.00;70276.28;5073177;28;20203;-75
2022/09/15 07:59:18;;;;;;;1.55;0.60;;;;;;;-145.69;100.00;70290.22;5083029;28;20190;-76
2022/09/15 08:01:45;;;;;;;0.95;0.50;;;;;;;-145.69;100.00;70310.09;5089527;28;20198;-76
2022/09/15 08:04:12;;;;;;;1.70;0.60;;;;;;;-145.69;100.00;70341.94;5094157;28;20672;-76
2022/09/15 08:06:38;;;;;;;0.93;0.50;;;;;;;-145.69;100.00;70375.75;5096201;28;20234;-76
2022/09/15 08:09:05;;;;;;;1.65;0.68;;;;;;;-145.69;100.00;70387.69;5096014;28;20209;-75
2022/09/15 08:11:31;;;;;;;1.63;0.90;;;;;;;-145.69;100.00;70401.63;5095935;28;20202;-75
2022/09/15 08:14:01;;;;;;;0.60;0.60;;;;;;;-145.69;100.00;70407.59;5079903;28;20226;-76
2022/09/15 08:16:28;;;;;;;2.90;0.57;;;;;;;-145.69;100.00;70409.56;5076563;28;20557;-77
2022/09/15 08:18:55;;;;;;;0.70;0.60;;;;;;;-145.69;100.00;70403.59;5075376;28;20209;-77
2022/09/15 08:21:22;;;;;;;2.22;0.73;;;;;;;-145.69;100.00;70405.59;5075416;28;20229;-76
2022/09/15 08:23:54;;;;;;;2.10;0.50;;;;;;;-145.69;100.00;70403.59;5088679;28;20204;-76
2022/09/15 08:26:21;;;;;;;3.22;0.60;;;;;;;-145.69;100.00;70395.66;5095556;28;20194;-76
2022/09/15 08:28:48;;;;;;;1.23;0.60;;;;;;;-145.69;100.00;70387.69;5095447;28;20209;-76
2022/09/15 08:31:16;;;;;;;0.70;0.60;;;;;;;-145.69;100.00;70373.78;5095330;28;20202;-76
2022/09/15 08:33:47;;;;;;;1.02;0.60;;;;;;;-145.69;100.00;70359.84;5083530;28;20253;-76
2022/09/15 08:36:14;;;;;;;1.40;0.50;;;;;;;-145.69;100.00;70359.84;5075316;28;20209;-75
2022/09/15 08:38:41;;;;;;;1.98;0.90;;;;;;;-145.69;100.00;70351.88;5075084;28;20565;-77
2022/09/15 08:41:11;;;;;;;2.17;0.63;;;;;;;-145.69;100.00;70345.91;5075098;28;20249;-77
2022/09/15 08:43:44;;;;;;;2.35;0.85;;;;;;;-145.69;100.00;70347.91;5084027;28;20599;-77
2022/09/15 08:46:17;;;;;;;0.60;0.60;;;;;;;-145.69;100.00;70339.94;5095218;28;20665;-76
2022/09/15 08:48:50;;;;;;;0.60;0.60;;;;;;;-145.69;100.00;70339.94;5070192;28;20290;-76
2022/09/15 08:51:26;;;;;;;0.55;0.55;;;;;;;-145.69;100.00;70332.00;5055005;28;20199;-76
2022/09/15 08:53:59;;;;;;;2.15;0.70;;;;;;;-145.69;100.00;70292.19;5077663;28;20221;-76
2022/09/15 08:56:27;;;;;;;1.40;0.70;;;;;;;-145.69;100.00;70272.31;5093438;28;20205;-76
2022/09/15 08:58:54;;;;;;;1.73;0.70;;;;;;;-145.69;100.00;70270.31;5094876;28;20561;-76
2022/09/15 09:01:38;;;;;;;1.60;0.70;;;;;;;-145.69;100.00;70236.50;5093387;28;20202;-75
2022/09/15 09:04:30;;;;;;;2.53;1.00;;;;;;;-145.69;100.00;70230.53;5094876;28;20198;-75
2022/09/15 09:07:06;;;;;;;2.50;0.90;;;;;;;-145.69;100.00;70256.41;5094933;28;20206;-76
2022/09/15 09:09:42;;;;;;;2.70;0.80;;;;;;;-145.69;100.00;70264.34;5095036;28;20213;-76
2022/09/15 09:12:29;;;;;;;1.30;0.88;;;;;;;-145.69;100.00;70252.41;5075422;28;20260;-76
2022/09/15 09:15:11;;;;;;;0.82;0.60;;;;;;;-145.69;100.00;70252.41;5074231;28;20708;-75
2022/09/15 09:17:59;;;;;;;1.75;0.65;;;;;;;-145.69;100.00;70236.50;5074614;28;20203;-75
2022/09/15 09:20:37;;;;;;;0.68;0.68;;;;;;;-145.69;100.00;70252.41;5077367;28;20205;-76
2022/09/15 09:23:09;;;;;;;3.28;0.63;;;;;;;-145.69;100.00;70260.38;5094508;28;20213;-77
2022/09/15 09:25:35;;;;;;;2.30;0.88;;;;;;;-145.69;100.00;70288.22;5094722;28;20202;-75
2022/09/15 09:28:22;;;;;;;1.77;0.93;;;;;;;-145.69;100.00;70272.31;5094629;28;20221;-77
2022/09/15 09:30:49;;;;;;;3.00;1.05;;;;;;;-145.69;100.00;70286.25;5087721;28;20199;-76
2022/09/15 09:33:25;;;;;;;4.32;1.23;;;;;;;-145.69;100.00;70280.28;5073966;28;20603;-77
2022/09/15 09:35:53;;;;;;;2.13;1.00;;;;;;;-145.69;100.00;70268.34;5073789;28;20237;-77
2022/09/15 09:38:23;;;;;;;1.58;1.00;;;;;;;-145.69;100.00;70244.47;5073867;28;20665;-76
2022/09/15 09:40:51;;;;;;;4.35;1.23;;;;;;;-145.69;100.00;70198.72;5080022;28;20206;-76
2022/09/15 09:43:17;;;;;;;1.70;0.98;;;;;;;-145.69;100.00;70141.03;5094203;28;20209;-76
2022/09/15 09:45:44;;;;;;;1.88;1.30;;;;;;;-145.69;100.00;70109.19;5093779;28;20205;-76
2022/09/15 09:48:15;;;;;;;2.17;1.33;;;;;;;-145.69;100.00;70083.34;5092966;28;20439;-76
2022/09/15 09:50:43;;;;;;;2.08;1.30;;;;;;;-145.69;100.00;70059.47;5089001;28;20234;-76
2022/09/15 09:53:24;;;;;;;1.98;1.10;;;;;;;-145.69;100.00;70005.75;5073682;28;20199;-77
2022/09/15 09:55:53;;;;;;;2.10;1.35;;;;;;;-145.69;100.00;70017.69;5073597;28;20245;-76
2022/09/15 09:58:22;;;;;;;3.60;1.52;;;;;;;-145.69;100.00;69969.94;5073530;28;20203;-75
2022/09/15 10:00:49;;;;;;;3.22;1.55;;;;;;;-145.69;100.00;69954.03;5078087;28;20201;-75
2022/09/15 10:03:18;;;;;;;3.13;1.50;;;;;;;-145.69;100.00;70021.66;5084271;28;20608;-76
2022/09/15 10:05:59;;;;;;;2.67;1.25;;;;;;;-145.69;100.00;69989.84;5073513;28;20203;-75
2022/09/15 10:08:27;;;;;;;1.38;1.13;;;;;;;-145.69;100.00;70003.75;5073337;28;20199;-77
2022/09/15 10:10:55;;;;;;;2.35;1.50;;;;;;;-145.69;100.00;70001.78;5078641;28;20206;-76
2022/09/15 10:13:22;;;;;;;4.47;1.58;;;;;;;-145.69;100.00;70021.66;5093369;28;20202;-77
2022/09/15 10:15:54;;;;;;;2.25;1.38;;;;;;;-145.69;100.00;70063.44;5093616;28;20205;-77
2022/09/15 10:18:35;;;;;;;3.25;1.30;;;;;;;-145.69;100.00;70085.31;5093527;28;20194;-77
2022/09/15 10:21:03;;;;;;;3.35;1.63;;;;;;;-145.69;100.00;70061.44;5086861;28;20221;-76
2022/09/15 10:23:33;;;;;;;2.65;1.33;;;;;;;-145.69;100.00;70089.31;5073181;28;20597;-76
2022/09/15 10:26:31;;;;;;;2.50;1.40;;;;;;;-145.69;100.00;70033.59;5072144;28;20438;-76
2022/09/15 10:29:12;;;;;;;2.45;1.50;;;;;;;-145.69;99.61;70009.72;5073240;28;20622;-76
2022/09/15 10:31:40;;;;;;;4.03;1.67;;;;;;;-145.69;100.00;69952.03;5084161;28;20197;-75
2022/09/15 10:34:29;;;;;;;3.47;1.30;;;;;;;-145.69;100.00;69930.16;5093126;28;20221;-76
2022/09/15 10:37:05;;;;;;;1.65;1.25;;;;;;;-145.69;100.00;69892.38;5093455;28;20201;-76
2022/09/15 10:39:43;;;;;;;3.17;1.30;;;;;;;-145.69;97.62;69882.44;5093204;28;20676;-76
2022/09/15 10:42:18;;;;;;;3.88;1.42;;;;;;;-145.69;100.00;69960.00;5078323;28;20284;-76
2022/09/15 10:44:54;;;;;;;1.55;1.10;;;;;;;-145.69;99.73;69999.78;5073138;28;20527;-76
2022/09/15 10:47:31;;;;;;;4.03;1.23;;;;;;;-145.69;100.00;70021.66;5071068;28;20230;-75
2022/09/15 10:50:10;;;;;;;2.08;1.20;;;;;;;-145.69;100.00;70071.41;5052794;28;20227;-76
2022/09/15 10:52:53;;;;;;;3.40;1.10;;;;;;;-145.69;100.00;70085.31;5088929;28;20224;-75
2022/09/15 10:55:35;;;;;;;3.20;1.35;;;;;;;-145.69;100.00;70103.22;5093158;28;20225;-76
2022/09/15 10:58:19;;;;;;;2.58;1.30;;;;;;;-145.69;100.00;70115.16;5093205;28;20315;-76
2022/09/15 11:00:55;;;;;;;3.38;1.20;;;;;;;-145.69;100.00;70145.00;5090353;28;20210;-77
2022/09/15 11:03:54;;;;;;;1.50;1.02;;;;;;;-145.69;100.00;70178.81;5072626;28;20194;-76
2022/09/15 11:06:29;;;;;;;1.48;1.10;;;;;;;-145.69;100.00;70230.53;5072738;28;20291;-76
2022/09/15 11:09:19;;;;;;;2.67;1.10;;;;;;;-145.69;100.00;70294.19;5072888;28;20252;-75
2022/09/15 11:12:21;;;;;;;3.20;1.10;;;;;;;-145.69;100.00;70395.66;5081802;28;20234;-75
2022/09/15 11:15:00;;;;;;;4.07;1.70;;;;;;;-145.69;100.00;70441.41;5093057;28;20699;-74
2022/09/15 11:17:43;;;;;;;3.60;1.40;;;;;;;-145.69;100.00;70439.41;5093539;28;20208;-74
2022/09/15 11:20:31;;;;;;;3.95;1.48;;;;;;;-145.69;100.00;70415.53;5093898;28;20664;-76
2022/09/15 11:23:04;;;;;;;3.05;1.60;;;;;;;-145.69;100.00;70405.59;5074432;28;20195;-75
2022/09/15 11:25:34;;;;;;;2.42;1.77;;;;;;;-145.69;100.00;70407.59;5072594;28;20207;-74